Time;durP1;ratioP1;P1;durP2;ratioP2;P2;SDS_P1;SDS_P2;PMS_P1;PMS_P2;Temp;Humidity;BMP_temperature;BMP_pressure;BME280_temperature;BME280_humidity;BME280_pressure;Samples;Min_cycle;Max_cycle;Signal;HPM_P1;HPM_P2
2023/12/23 00:01:39;;;;;;;11.10;3.17;;;;;;;;;;5036444;28;20520;-79
2023/12/23 00:04:06;;;;;;;12.47;3.23;;;;;;;;;;5035612;28;20506;-80
2023/12/23 00:06:33;;;;;;;6.77;2.00;;;;;;;;;;5036220;28;20536;-80
2023/12/23 00:09:00;;;;;;;17.00;2.90;;;;;;;;;;5036062;28;20544;-79
2023/12/23 00:11:26;;;;;;;12.10;3.03;;;;;;;;;;5036116;28;20571;-79
2023/12/23 00:13:53;;;;;;;13.90;3.40;;;;;;;;;;5035853;28;20528;-79
2023/12/23 00:16:19;;;;;;;12.03;2.57;;;;;;;;;;5035782;28;21013;-80
2023/12/23 00:18:46;;;;;;;10.33;2.70;;;;;;;;;;5036064;28;20551;-80
2023/12/23 00:21:12;;;;;;;9.87;2.53;;;;;;;;;;5035767;28;20888;-80
2023/12/23 00:23:40;;;;;;;29.07;3.73;;;;;;;;;;5035622;28;21053;-79
2023/12/23 00:26:07;;;;;;;15.67;2.90;;;;;;;;;;5035876;28;20449;-79
2023/12/23 00:28:33;;;;;;;10.47;2.57;;;;;;;;;;5035158;28;20552;-79
2023/12/23 00:31:00;;;;;;;13.20;2.53;;;;;;;;;;5035612;28;21010;-79
2023/12/23 00:33:26;;;;;;;5.80;2.67;;;;;;;;;;5035310;28;20548;-79
2023/12/23 00:35:53;;;;;;;8.93;2.20;;;;;;;;;;5035723;28;20547;-79
2023/12/23 00:38:19;;;;;;;12.13;2.80;;;;;;;;;;5034963;28;21098;-80
2023/12/23 00:40:47;;;;;;;12.60;2.40;;;;;;;;;;5035472;28;20532;-80
2023/12/23 00:43:13;;;;;;;11.53;2.70;;;;;;;;;;5035010;28;20524;-80
2023/12/23 00:45:40;;;;;;;8.80;2.10;;;;;;;;;;5035597;28;20548;-80
2023/12/23 00:48:07;;;;;;;10.70;3.17;;;;;;;;;;5035038;28;20540;-82
2023/12/23 00:50:34;;;;;;;10.80;3.30;;;;;;;;;;5035604;28;20452;-79
2023/12/23 00:53:02;;;;;;;14.77;3.00;;;;;;;;;;5034892;28;20497;-79
2023/12/23 00:55:28;;;;;;;11.70;2.80;;;;;;;;;;5035516;28;20463;-80
2023/12/23 00:57:56;;;;;;;17.03;3.70;;;;;;;;;;5034824;28;20522;-80
2023/12/23 01:00:23;;;;;;;12.50;2.63;;;;;;;;;;5035082;28;20508;-80
2023/12/23 01:02:49;;;;;;;15.33;2.83;;;;;;;;;;5033507;28;20555;-80
2023/12/23 01:05:16;;;;;;;13.80;2.47;;;;;;;;;;5034950;28;20555;-79
2023/12/23 01:07:42;;;;;;;11.47;2.70;;;;;;;;;;5034833;28;20464;-80
2023/12/23 01:10:09;;;;;;;6.80;2.00;;;;;;;;;;5035273;28;20447;-79
2023/12/23 01:12:36;;;;;;;15.70;2.67;;;;;;;;;;5034453;28;20897;-80
2023/12/23 01:15:04;;;;;;;10.30;2.70;;;;;;;;;;5034878;28;20457;-79
2023/12/23 01:17:31;;;;;;;11.20;2.43;;;;;;;;;;5034347;28;20569;-81
2023/12/23 01:19:57;;;;;;;14.53;2.80;;;;;;;;;;5035115;28;20532;-79
2023/12/23 01:22:23;;;;;;;13.60;2.90;;;;;;;;;;5034283;28;20540;-80
2023/12/23 01:24:50;;;;;;;5.10;2.07;;;;;;;;;;5034667;28;20535;-79
2023/12/23 01:27:16;;;;;;;5.73;2.50;;;;;;;;;;5034315;28;20885;-80
2023/12/23 01:29:42;;;;;;;9.40;2.57;;;;;;;;;;5034366;28;21018;-79
2023/12/23 01:32:10;;;;;;;16.17;2.73;;;;;;;;;;5034435;28;20571;-79
2023/12/23 01:34:38;;;;;;;11.60;2.70;;;;;;;;;;5034135;28;20556;-79
2023/12/23 01:37:05;;;;;;;11.30;3.03;;;;;;;;;;5034658;28;20451;-79
2023/12/23 01:39:31;;;;;;;13.50;3.00;;;;;;;;;;5034701;28;21073;-79
2023/12/23 01:41:57;;;;;;;13.73;2.90;;;;;;;;;;5034594;28;20533;-79
2023/12/23 01:44:24;;;;;;;9.10;2.50;;;;;;;;;;5034058;28;20552;-79
2023/12/23 01:46:52;;;;;;;10.03;2.63;;;;;;;;;;5034149;28;20532;-79
2023/12/23 01:49:20;;;;;;;13.10;3.00;;;;;;;;;;5033608;28;20477;-79
2023/12/23 01:51:46;;;;;;;18.77;2.90;;;;;;;;;;5034304;28;20863;-79
2023/12/23 01:54:13;;;;;;;10.60;2.27;;;;;;;;;;5033503;28;20936;-79
2023/12/23 01:56:39;;;;;;;11.73;2.67;;;;;;;;;;5033939;28;20531;-80
2023/12/23 01:59:06;;;;;;;13.10;2.20;;;;;;;;;;5033529;28;21014;-79
2023/12/23 02:01:33;;;;;;;15.40;2.93;;;;;;;;;;5034054;28;20531;-79
2023/12/23 02:03:59;;;;;;;11.57;3.37;;;;;;;;;;5033506;28;20547;-79
2023/12/23 02:06:28;;;;;;;10.27;2.10;;;;;;;;;;5034045;28;20448;-80
2023/12/23 02:08:54;;;;;;;30.23;3.90;;;;;;;;;;5033760;28;20551;-79
2023/12/23 02:11:25;;;;;;;6.40;2.70;;;;;;;;;;5033862;28;20856;-79
2023/12/23 02:13:54;;;;;;;9.90;2.40;;;;;;;;;;5033242;28;20536;-80
2023/12/23 02:16:21;;;;;;;11.40;2.67;;;;;;;;;;5033922;28;20531;-81
2023/12/23 02:18:48;;;;;;;16.37;4.57;;;;;;;;;;5033436;28;20552;-80
2023/12/23 02:21:15;;;;;;;15.07;4.17;;;;;;;;;;5033490;28;21011;-80
2023/12/23 02:23:42;;;;;;;15.63;3.60;;;;;;;;;;5033540;28;20902;-81
2023/12/23 02:26:10;;;;;;;10.20;3.13;;;;;;;;;;5033759;28;20532;-81
2023/12/23 02:28:37;;;;;;;12.13;3.83;;;;;;;;;;5034095;28;20548;-80
2023/12/23 02:31:03;;;;;;;6.03;2.60;;;;;;;;;;5033440;28;20531;-80
2023/12/23 02:33:30;;;;;;;14.90;3.33;;;;;;;;;;5033412;28;20556;-81
2023/12/23 02:35:56;;;;;;;12.43;3.33;;;;;;;;;;5034030;28;20547;-81
2023/12/23 02:38:24;;;;;;;7.33;2.27;;;;;;;;;;5032813;28;20547;-80
2023/12/23 02:40:50;;;;;;;18.60;3.40;;;;;;;;;;5033595;28;20531;-81
2023/12/23 02:43:17;;;;;;;18.87;2.93;;;;;;;;;;5033170;28;20472;-81
2023/12/23 02:45:43;;;;;;;10.30;3.20;;;;;;;;;;5033609;28;20536;-80
2023/12/23 02:48:10;;;;;;;15.17;3.60;;;;;;;;;;5032923;28;21057;-81
2023/12/23 02:50:36;;;;;;;6.60;2.43;;;;;;;;;;5033475;28;20527;-81
2023/12/23 02:53:03;;;;;;;11.03;2.47;;;;;;;;;;5033453;28;20899;-80
2023/12/23 02:55:33;;;;;;;7.53;2.23;;;;;;;;;;5033952;28;20460;-80
2023/12/23 02:57:59;;;;;;;13.83;2.60;;;;;;;;;;5033522;28;20527;-79
2023/12/23 03:00:26;;;;;;;8.13;2.30;;;;;;;;;;5033610;28;20508;-79
2023/12/23 03:02:52;;;;;;;16.17;2.27;;;;;;;;;;5032962;28;21062;-79
2023/12/23 03:05:18;;;;;;;11.97;3.10;;;;;;;;;;5033413;28;20908;-79
2023/12/23 03:07:47;;;;;;;9.83;2.43;;;;;;;;;;5033203;28;20543;-79
2023/12/23 03:10:14;;;;;;;12.77;3.50;;;;;;;;;;5033523;28;20440;-80
2023/12/23 03:12:41;;;;;;;7.83;3.00;;;;;;;;;;5032706;28;20536;-79
2023/12/23 03:15:08;;;;;;;9.10;2.47;;;;;;;;;;5033708;28;20539;-80
2023/12/23 03:17:35;;;;;;;11.47;2.40;;;;;;;;;;5032900;28;20468;-79
2023/12/23 03:20:01;;;;;;;14.43;3.90;;;;;;;;;;5033196;28;20490;-79
2023/12/23 03:22:28;;;;;;;9.03;2.63;;;;;;;;;;5032797;28;20527;-81
2023/12/23 03:24:54;;;;;;;19.00;2.97;;;;;;;;;;5034033;28;20539;-79
2023/12/23 03:27:20;;;;;;;13.80;2.60;;;;;;;;;;5036614;28;20540;-80
2023/12/23 03:29:48;;;;;;;8.77;3.20;;;;;;;;;;5036989;28;20607;-79
2023/12/23 03:32:14;;;;;;;12.57;2.60;;;;;;;;;;5036257;28;20567;-80
2023/12/23 03:34:41;;;;;;;7.27;2.33;;;;;;;;;;5036680;28;20547;-79
2023/12/23 03:37:07;;;;;;;14.10;2.70;;;;;;;;;;5036885;28;20437;-79
2023/12/23 03:39:34;;;;;;;15.07;2.80;;;;;;;;;;5036105;28;20548;-79
2023/12/23 03:42:00;;;;;;;13.17;4.03;;;;;;;;;;5036397;28;20531;-79
2023/12/23 03:44:27;;;;;;;17.27;2.83;;;;;;;;;;5036130;28;20514;-79
2023/12/23 03:46:56;;;;;;;9.83;3.23;;;;;;;;;;5036447;28;20531;-79
2023/12/23 03:49:22;;;;;;;7.77;2.90;;;;;;;;;;5036560;28;20460;-79
2023/12/23 03:51:48;;;;;;;12.70;3.20;;;;;;;;;;5036153;28;21002;-79
2023/12/23 03:54:15;;;;;;;12.93;2.40;;;;;;;;;;5035575;28;20496;-79
2023/12/23 03:56:41;;;;;;;19.10;3.20;;;;;;;;;;5036336;28;20523;-79
2023/12/23 03:59:08;;;;;;;10.83;3.20;;;;;;;;;;5035803;28;20469;-79
2023/12/23 04:01:35;;;;;;;19.63;3.10;;;;;;;;;;5036259;28;20519;-79
2023/12/23 04:04:03;;;;;;;14.50;2.90;;;;;;;;;;5035672;28;20998;-79
2023/12/23 04:06:29;;;;;;;9.77;3.43;;;;;;;;;;5036106;28;20437;-79
2023/12/23 04:08:55;;;;;;;13.50;2.73;;;;;;;;;;5035405;28;20555;-79
2023/12/23 04:11:22;;;;;;;7.73;2.67;;;;;;;;;;5036160;28;20483;-79
2023/12/23 04:13:48;;;;;;;14.87;3.20;;;;;;;;;;5035098;28;20477;-79
2023/12/23 04:16:15;;;;;;;11.80;3.43;;;;;;;;;;5035650;28;20524;-79
2023/12/23 04:18:42;;;;;;;8.90;3.07;;;;;;;;;;5035236;28;20556;-79
2023/12/23 04:21:10;;;;;;;6.70;1.80;;;;;;;;;;5035845;28;20528;-79
2023/12/23 04:23:37;;;;;;;13.90;2.70;;;;;;;;;;5035132;28;20930;-79
2023/12/23 04:26:04;;;;;;;10.50;2.97;;;;;;;;;;5035821;28;20544;-79
2023/12/23 04:28:30;;;;;;;10.03;2.57;;;;;;;;;;5035523;28;20473;-79
2023/12/23 04:30:57;;;;;;;11.90;3.67;;;;;;;;;;5035339;28;20889;-79
2023/12/23 04:33:23;;;;;;;12.13;2.80;;;;;;;;;;5035082;28;20556;-79
2023/12/23 04:35:50;;;;;;;10.47;2.60;;;;;;;;;;5035468;28;20549;-79
2023/12/23 04:38:18;;;;;;;15.57;3.57;;;;;;;;;;5035014;28;20564;-79
2023/12/23 04:40:44;;;;;;;6.83;2.60;;;;;;;;;;5035483;28;20519;-79
2023/12/23 04:43:10;;;;;;;11.93;2.50;;;;;;;;;;5034945;28;20564;-79
2023/12/23 04:45:37;;;;;;;7.90;2.30;;;;;;;;;;5035525;28;20901;-80
2023/12/23 04:48:04;;;;;;;14.73;2.93;;;;;;;;;;5034955;28;20548;-80
2023/12/23 04:50:30;;;;;;;11.40;2.10;;;;;;;;;;5034998;28;21017;-81
2023/12/23 04:52:56;;;;;;;16.57;4.00;;;;;;;;;;5034835;28;20559;-81
2023/12/23 04:55:24;;;;;;;7.40;2.60;;;;;;;;;;5035163;28;20660;-81
2023/12/23 04:57:51;;;;;;;7.50;2.17;;;;;;;;;;5034302;28;20552;-81
2023/12/23 05:00:17;;;;;;;6.80;1.97;;;;;;;;;;5035096;28;20508;-81
2023/12/23 05:02:44;;;;;;;7.03;2.37;;;;;;;;;;5034506;28;20915;-81
2023/12/23 05:05:10;;;;;;;10.90;2.23;;;;;;;;;;5034809;28;20881;-80
2023/12/23 05:07:37;;;;;;;10.60;1.63;;;;;;;;;;5034432;28;20547;-81
2023/12/23 05:10:03;;;;;;;9.67;1.90;;;;;;;;;;5034953;28;20523;-81
2023/12/23 05:12:31;;;;;;;10.23;2.80;;;;;;;;;;5034326;28;20448;-82
2023/12/23 05:14:58;;;;;;;9.90;4.40;;;;;;;;;;5034669;28;20560;-81
2023/12/23 05:17:24;;;;;;;7.50;2.20;;;;;;;;;;5034231;28;20440;-82
2023/12/23 05:19:51;;;;;;;9.83;2.57;;;;;;;;;;5034613;28;20437;-81
2023/12/23 05:22:17;;;;;;;14.13;3.23;;;;;;;;;;5034252;28;20536;-82
2023/12/23 05:24:46;;;;;;;9.77;3.13;;;;;;;;;;5034374;28;21034;-80
2023/12/23 05:27:13;;;;;;;11.20;2.70;;;;;;;;;;5034820;28;20444;-80
2023/12/23 05:29:41;;;;;;;13.70;2.40;;;;;;;;;;5033920;28;20511;-80
2023/12/23 05:32:08;;;;;;;9.53;2.80;;;;;;;;;;5034297;28;20532;-81
2023/12/23 05:34:34;;;;;;;7.60;2.27;;;;;;;;;;5033837;28;20882;-81
2023/12/23 05:37:01;;;;;;;13.73;2.57;;;;;;;;;;5034215;28;20528;-81
2023/12/23 05:39:27;;;;;;;19.57;2.63;;;;;;;;;;5033722;28;20503;-81
2023/12/23 05:41:53;;;;;;;8.87;2.03;;;;;;;;;;5034549;28;20527;-81
2023/12/23 05:44:20;;;;;;;5.67;2.40;;;;;;;;;;5033506;28;21066;-81
2023/12/23 05:46:48;;;;;;;13.10;3.17;;;;;;;;;;5034053;28;20482;-81
2023/12/23 05:49:14;;;;;;;16.50;4.83;;;;;;;;;;5033205;28;20547;-81
2023/12/23 05:51:41;;;;;;;15.80;2.73;;;;;;;;;;5033989;28;20532;-81
2023/12/23 05:54:07;;;;;;;12.67;2.43;;;;;;;;;;5033268;28;21106;-81
2023/12/23 05:56:33;;;;;;;9.40;2.73;;;;;;;;;;5034002;28;20448;-81
2023/12/23 05:58:59;;;;;;;8.77;1.90;;;;;;;;;;5033285;28;21077;-81
2023/12/23 06:01:26;;;;;;;12.23;2.10;;;;;;;;;;5033928;28;20293;-81
2023/12/23 06:03:54;;;;;;;6.87;1.90;;;;;;;;;;5033152;28;20839;-81
2023/12/23 06:06:20;;;;;;;8.03;2.00;;;;;;;;;;5034014;28;20476;-81
2023/12/23 06:08:47;;;;;;;10.10;3.10;;;;;;;;;;5033450;28;20473;-81
2023/12/23 06:11:13;;;;;;;4.43;1.60;;;;;;;;;;5033812;28;20520;-81
2023/12/23 06:13:40;;;;;;;8.83;2.60;;;;;;;;;;5033340;28;20476;-80
2023/12/23 06:16:07;;;;;;;10.90;2.43;;;;;;;;;;5033859;28;20469;-81
2023/12/23 06:18:34;;;;;;;17.70;2.83;;;;;;;;;;5033312;28;20556;-81
2023/12/23 06:21:02;;;;;;;9.73;2.03;;;;;;;;;;5033655;28;20429;-81
2023/12/23 06:23:28;;;;;;;9.63;2.30;;;;;;;;;;5032878;28;21053;-80
2023/12/23 06:25:55;;;;;;;8.60;2.40;;;;;;;;;;5033214;28;20488;-81
2023/12/23 06:28:21;;;;;;;12.27;2.87;;;;;;;;;;5032925;28;20473;-81
2023/12/23 06:30:48;;;;;;;8.60;2.90;;;;;;;;;;5033327;28;20536;-81
2023/12/23 06:33:14;;;;;;;9.03;2.90;;;;;;;;;;5032759;28;21070;-81
2023/12/23 06:35:41;;;;;;;10.27;2.43;;;;;;;;;;5033537;28;20550;-81
2023/12/23 06:38:08;;;;;;;9.53;2.70;;;;;;;;;;5033016;28;21033;-81
2023/12/23 06:40:35;;;;;;;4.30;1.37;;;;;;;;;;5033471;28;20528;-81
2023/12/23 06:43:02;;;;;;;8.90;2.13;;;;;;;;;;5033024;28;21057;-80
2023/12/23 06:45:28;;;;;;;12.07;2.00;;;;;;;;;;5033290;28;20833;-81
2023/12/23 06:47:54;;;;;;;10.57;1.80;;;;;;;;;;5032976;28;20552;-81
2023/12/23 06:50:21;;;;;;;7.93;2.00;;;;;;;;;;5033454;28;20519;-80
2023/12/23 06:52:47;;;;;;;4.33;1.40;;;;;;;;;;5033010;28;20552;-81
2023/12/23 06:55:15;;;;;;;10.60;2.13;;;;;;;;;;5032842;28;20576;-81
2023/12/23 06:57:42;;;;;;;8.13;2.33;;;;;;;;;;5032837;28;20543;-81
2023/12/23 07:00:08;;;;;;;7.90;1.67;;;;;;;;;;5034635;28;20505;-81
2023/12/23 07:02:34;;;;;;;4.77;1.90;;;;;;;;;;5036801;28;20520;-82
2023/12/23 07:05:01;;;;;;;3.67;1.67;;;;;;;;;;5037313;28;20543;-81
2023/12/23 07:07:27;;;;;;;6.80;1.80;;;;;;;;;;5036733;28;20982;-81
2023/12/23 07:09:54;;;;;;;6.47;1.73;;;;;;;;;;5037342;28;20811;-81
2023/12/23 07:12:22;;;;;;;10.83;2.50;;;;;;;;;;5036762;28;20529;-81
2023/12/23 07:14:48;;;;;;;7.97;1.47;;;;;;;;;;5037143;28;20571;-81
2023/12/23 07:17:15;;;;;;;9.67;1.83;;;;;;;;;;5036384;28;20524;-81
2023/12/23 07:19:41;;;;;;;8.30;1.87;;;;;;;;;;5036815;28;20519;-80
2023/12/23 07:22:07;;;;;;;6.50;2.00;;;;;;;;;;5037126;28;20527;-81
2023/12/23 07:24:34;;;;;;;5.97;1.73;;;;;;;;;;5036216;28;20496;-81
2023/12/23 07:27:03;;;;;;;6.90;1.73;;;;;;;;;;5038462;28;20484;-79
2023/12/23 07:29:31;;;;;;;7.43;1.60;;;;;;;;;;5036346;28;20941;-79
2023/12/23 07:31:58;;;;;;;4.33;1.53;;;;;;;;;;5037396;28;20523;-79
2023/12/23 07:34:24;;;;;;;5.60;1.90;;;;;;;;;;5036362;28;20559;-79
2023/12/23 07:36:51;;;;;;;4.03;1.50;;;;;;;;;;5036882;28;20496;-80
2023/12/23 07:39:17;;;;;;;4.90;1.67;;;;;;;;;;5038658;28;20572;-79
2023/12/23 07:41:44;;;;;;;4.20;1.23;;;;;;;;;;5036437;28;20476;-79
2023/12/23 07:44:10;;;;;;;4.30;1.90;;;;;;;;;;5036343;28;20567;-79
2023/12/23 07:46:38;;;;;;;6.50;1.57;;;;;;;;;;5036714;28;20520;-79
2023/12/23 07:49:04;;;;;;;7.50;2.50;;;;;;;;;;5036131;28;20560;-80
2023/12/23 07:51:31;;;;;;;5.13;1.60;;;;;;;;;;5036496;28;20863;-81
2023/12/23 07:53:57;;;;;;;9.57;3.70;;;;;;;;;;5035597;28;20571;-81
2023/12/23 07:56:25;;;;;;;2.20;1.17;;;;;;;;;;5036115;28;21009;-80
2023/12/23 07:58:51;;;;;;;3.20;1.80;;;;;;;;;;5034746;28;20895;-80
2023/12/23 08:01:18;;;;;;;2.20;1.67;;;;;;;;;;5035062;28;20444;-80
2023/12/23 08:03:46;;;;;;;5.80;1.57;;;;;;;;;;5034472;28;20564;-79
2023/12/23 08:06:12;;;;;;;5.77;1.87;;;;;;;;;;5035063;28;21025;-80
2023/12/23 08:08:38;;;;;;;9.83;1.87;;;;;;;;;;5034496;28;20559;-80
2023/12/23 08:11:05;;;;;;;2.23;1.50;;;;;;;;;;5034489;28;20523;-79
2023/12/23 08:13:31;;;;;;;5.90;2.03;;;;;;;;;;5034281;28;20506;-79
2023/12/23 08:15:58;;;;;;;8.80;2.30;;;;;;;;;;5034956;28;20539;-80
2023/12/23 08:18:24;;;;;;;5.47;3.60;;;;;;;;;;5034406;28;20556;-80
2023/12/23 08:20:52;;;;;;;3.23;1.70;;;;;;;;;;5034998;28;20874;-79
2023/12/23 08:23:18;;;;;;;10.23;2.00;;;;;;;;;;5034335;28;20551;-79
2023/12/23 08:25:46;;;;;;;2.70;1.97;;;;;;;;;;5034751;28;20543;-79
2023/12/23 08:28:12;;;;;;;8.50;2.00;;;;;;;;;;5034067;28;20476;-79
2023/12/23 08:30:39;;;;;;;5.33;1.90;;;;;;;;;;5035179;28;20528;-79
2023/12/23 08:33:05;;;;;;;14.93;6.43;;;;;;;;;;5034046;28;20472;-79
2023/12/23 08:35:32;;;;;;;11.10;3.70;;;;;;;;;;5034746;28;20575;-79
2023/12/23 08:38:00;;;;;;;2.60;1.77;;;;;;;;;;5033811;28;21020;-80
2023/12/23 08:40:26;;;;;;;5.83;2.10;;;;;;;;;;5034608;28;20883;-78
2023/12/23 08:42:53;;;;;;;3.13;1.60;;;;;;;;;;5033916;28;20556;-79
2023/12/23 08:45:19;;;;;;;4.57;1.87;;;;;;;;;;5034379;28;20551;-78
2023/12/23 08:47:45;;;;;;;5.00;2.60;;;;;;;;;;5034020;28;20544;-79
2023/12/23 08:50:13;;;;;;;3.40;1.70;;;;;;;;;;5034458;28;20528;-79
2023/12/23 08:52:39;;;;;;;11.87;2.57;;;;;;;;;;5033954;28;21383;-79
2023/12/23 08:55:07;;;;;;;5.50;2.20;;;;;;;;;;5035375;28;20571;-82
2023/12/23 08:57:34;;;;;;;3.20;1.57;;;;;;;;;;4995734;28;1137601;-79
2023/12/23 09:00:01;;;;;;;3.87;1.90;;;;;;;;;;5035433;28;20512;-79
2023/12/23 09:02:27;;;;;;;9.17;1.97;;;;;;;;;;5034913;28;20443;-79
2023/12/23 09:04:54;;;;;;;5.83;1.97;;;;;;;;;;5035133;28;20875;-79
2023/12/23 09:07:20;;;;;;;4.20;1.47;;;;;;;;;;5034622;28;20631;-79
2023/12/23 09:09:46;;;;;;;1.90;1.37;;;;;;;;;;5034904;28;20975;-79
2023/12/23 09:12:14;;;;;;;5.07;1.83;;;;;;;;;;5035105;28;20528;-79
2023/12/23 09:14:41;;;;;;;6.97;2.00;;;;;;;;;;5034670;28;20572;-79
2023/12/23 09:17:07;;;;;;;4.30;1.70;;;;;;;;;;5035162;28;20523;-79
2023/12/23 09:19:33;;;;;;;5.47;2.17;;;;;;;;;;5034297;28;20563;-79
2023/12/23 09:22:00;;;;;;;5.80;1.60;;;;;;;;;;5034565;28;20536;-79
2023/12/23 09:24:26;;;;;;;5.67;2.00;;;;;;;;;;5034126;28;21045;-78
2023/12/23 09:26:53;;;;;;;3.10;1.90;;;;;;;;;;5036206;28;20520;-80
2023/12/23 09:29:21;;;;;;;7.90;2.07;;;;;;;;;;5034102;28;20556;-79
2023/12/23 09:31:47;;;;;;;4.10;2.30;;;;;;;;;;5034690;28;20440;-79
2023/12/23 09:34:14;;;;;;;5.03;2.30;;;;;;;;;;5033990;28;20560;-79
2023/12/23 09:36:40;;;;;;;2.13;1.40;;;;;;;;;;5034647;28;20516;-79
2023/12/23 09:39:06;;;;;;;3.93;1.57;;;;;;;;;;5033798;28;20910;-79
2023/12/23 09:41:33;;;;;;;3.40;1.30;;;;;;;;;;5034387;28;20519;-79
2023/12/23 09:43:59;;;;;;;4.00;1.50;;;;;;;;;;5033569;28;21058;-79
2023/12/23 09:46:27;;;;;;;2.80;1.30;;;;;;;;;;5034341;28;20527;-80
2023/12/23 09:48:53;;;;;;;5.20;1.40;;;;;;;;;;5034144;28;20556;-78
2023/12/23 09:51:22;;;;;;;4.57;2.17;;;;;;;;;;5034373;28;20524;-80
2023/12/23 09:53:49;;;;;;;6.80;2.30;;;;;;;;;;5033632;28;20560;-78
2023/12/23 09:56:16;;;;;;;4.57;1.60;;;;;;;;;;5033854;28;21025;-77
2023/12/23 09:58:43;;;;;;;3.43;1.70;;;;;;;;;;5033255;28;20472;-78
2023/12/23 10:01:10;;;;;;;4.43;2.03;;;;;;;;;;5030141;28;20523;-78
2023/12/23 10:03:38;;;;;;;3.27;2.40;;;;;;;;;;5033707;28;20556;-78
2023/12/23 10:06:04;;;;;;;5.63;1.77;;;;;;;;;;5033809;28;20532;-78
2023/12/23 10:08:30;;;;;;;7.73;1.73;;;;;;;;;;5033306;28;20556;-78
2023/12/23 10:10:57;;;;;;;8.13;1.60;;;;;;;;;;5033775;28;20531;-78
2023/12/23 10:13:23;;;;;;;2.00;1.10;;;;;;;;;;5033261;28;20555;-78
2023/12/23 10:15:50;;;;;;;6.40;1.50;;;;;;;;;;5033539;28;20492;-78
2023/12/23 10:18:17;;;;;;;3.50;2.10;;;;;;;;;;5032979;28;20519;-79
2023/12/23 10:20:44;;;;;;;2.50;1.60;;;;;;;;;;5033260;28;20528;-78
2023/12/23 10:23:11;;;;;;;3.30;2.10;;;;;;;;;;5032799;28;20563;-78
2023/12/23 10:25:38;;;;;;;2.90;1.50;;;;;;;;;;5033223;28;20891;-78
2023/12/23 10:28:07;;;;;;;4.70;2.03;;;;;;;;;;5032872;28;20471;-78
2023/12/23 10:30:34;;;;;;;2.43;2.00;;;;;;;;;;5033471;28;20536;-78
2023/12/23 10:33:05;;;;;;;3.23;1.80;;;;;;;;;;5032998;28;20553;-78
2023/12/23 10:35:33;;;;;;;1.10;1.00;;;;;;;;;;5032958;28;20571;-78
2023/12/23 10:38:03;;;;;;;4.87;1.70;;;;;;;;;;5032801;28;20978;-78
2023/12/23 10:40:29;;;;;;;4.63;1.40;;;;;;;;;;5033417;28;20468;-79
2023/12/23 10:42:58;;;;;;;1.20;1.10;;;;;;;;;;5032793;28;20552;-78
2023/12/23 10:45:24;;;;;;;2.63;1.43;;;;;;;;;;5033311;28;20461;-79
2023/12/23 10:47:51;;;;;;;2.10;1.60;;;;;;;;;;5032995;28;20551;-78
2023/12/23 10:50:18;;;;;;;2.93;1.20;;;;;;;;;;5032954;28;21004;-78
2023/12/23 10:52:45;;;;;;;4.47;1.80;;;;;;;;;;5032921;28;20583;-78
2023/12/23 10:55:13;;;;;;;1.17;1.07;;;;;;;;;;5033099;28;20516;-79
2023/12/23 10:57:40;;;;;;;3.03;2.03;;;;;;;;;;5032821;28;20575;-78
2023/12/23 11:00:09;;;;;;;5.50;2.30;;;;;;;;;;5033229;28;20459;-78
2023/12/23 11:02:37;;;;;;;3.93;1.50;;;;;;;;;;5032858;28;20472;-78
2023/12/23 11:05:07;;;;;;;1.50;1.20;;;;;;;;;;5032925;28;20461;-78
2023/12/23 11:07:35;;;;;;;2.80;1.60;;;;;;;;;;5032394;28;20551;-79
2023/12/23 11:10:02;;;;;;;1.50;1.40;;;;;;;;;;5032898;28;20535;-78
2023/12/23 11:12:30;;;;;;;1.73;1.60;;;;;;;;;;5032671;28;20472;-79
2023/12/23 11:14:56;;;;;;;2.67;1.30;;;;;;;;;;5032937;28;20580;-79
2023/12/23 11:17:24;;;;;;;4.27;1.90;;;;;;;;;;5032664;28;20551;-79
2023/12/23 11:19:50;;;;;;;1.77;1.67;;;;;;;;;;5032872;28;20506;-79
2023/12/23 11:22:20;;;;;;;2.33;1.40;;;;;;;;;;5032750;28;20492;-79
2023/12/23 11:24:47;;;;;;;2.73;1.80;;;;;;;;;;5032918;28;20465;-79
2023/12/23 11:27:28;;;;;;;1.33;1.00;;;;;;;;;;5032520;28;20469;-79
2023/12/23 11:29:58;;;;;;;1.60;1.50;;;;;;;;;;5032751;28;20425;-79
2023/12/23 11:32:25;;;;;;;2.60;1.10;;;;;;;;;;5032523;28;20559;-79
2023/12/23 11:34:52;;;;;;;1.30;1.13;;;;;;;;;;5032960;28;20587;-79
2023/12/23 11:37:18;;;;;;;1.27;1.17;;;;;;;;;;5032571;28;20552;-79
2023/12/23 11:39:45;;;;;;;2.83;1.20;;;;;;;;;;5032832;28;20519;-79
2023/12/23 11:42:13;;;;;;;1.40;1.30;;;;;;;;;;5032626;28;20552;-79
2023/12/23 11:44:40;;;;;;;3.63;1.27;;;;;;;;;;5032030;28;20526;-78
2023/12/23 11:47:08;;;;;;;1.33;1.23;;;;;;;;;;5034751;28;20551;-79
2023/12/23 11:49:35;;;;;;;1.50;1.30;;;;;;;;;;5036146;28;20997;-79
2023/12/23 11:52:01;;;;;;;1.93;1.10;;;;;;;;;;5036107;28;20547;-79
2023/12/23 11:54:28;;;;;;;2.07;1.70;;;;;;;;;;5036169;28;20471;-78
2023/12/23 11:56:54;;;;;;;1.70;1.30;;;;;;;;;;5035966;28;20551;-79
2023/12/23 11:59:21;;;;;;;1.33;0.90;;;;;;;;;;5035950;28;20548;-79
2023/12/23 12:01:48;;;;;;;1.33;1.00;;;;;;;;;;5035913;28;20797;-79
2023/12/23 12:04:17;;;;;;;0.80;0.80;;;;;;;;;;5035832;28;20917;-79
2023/12/23 12:06:43;;;;;;;1.20;1.00;;;;;;;;;;5035709;28;21022;-79
2023/12/23 12:09:10;;;;;;;1.70;1.50;;;;;;;;;;5036241;28;20535;-78
2023/12/23 12:11:37;;;;;;;1.37;1.23;;;;;;;;;;5035648;28;20520;-79
2023/12/23 12:14:04;;;;;;;1.20;1.10;;;;;;;;;;5036067;28;20472;-78
2023/12/23 12:16:30;;;;;;;1.90;1.30;;;;;;;;;;5035400;28;20884;-79
2023/12/23 12:18:57;;;;;;;1.47;1.37;;;;;;;;;;5035960;28;20528;-79
2023/12/23 12:21:24;;;;;;;1.47;1.37;;;;;;;;;;5035150;28;21245;-80
2023/12/23 12:23:51;;;;;;;1.50;1.40;;;;;;;;;;5035798;28;20531;-79
2023/12/23 12:26:20;;;;;;;2.50;1.60;;;;;;;;;;5035929;28;20556;-79
2023/12/23 12:28:46;;;;;;;1.20;1.10;;;;;;;;;;5035011;28;20491;-79
2023/12/23 12:31:14;;;;;;;1.37;1.27;;;;;;;;;;5035742;28;20523;-79
2023/12/23 12:33:40;;;;;;;1.57;1.30;;;;;;;;;;5035047;28;20468;-79
2023/12/23 12:36:09;;;;;;;1.03;1.03;;;;;;;;;;5035181;28;21011;-78
2023/12/23 12:38:37;;;;;;;1.13;1.13;;;;;;;;;;5035194;28;20998;-78
2023/12/23 12:41:03;;;;;;;1.20;1.10;;;;;;;;;;5036926;28;20445;-80
2023/12/23 12:43:30;;;;;;;1.07;0.97;;;;;;;;;;5035138;28;20886;-80
2023/12/23 12:45:57;;;;;;;1.50;1.40;;;;;;;;;;5035504;28;20917;-80
2023/12/23 12:48:23;;;;;;;1.50;1.07;;;;;;;;;;5035075;28;20551;-80
2023/12/23 12:50:53;;;;;;;2.10;1.20;;;;;;;;;;5035668;28;20441;-80
2023/12/23 12:53:19;;;;;;;1.57;1.20;;;;;;;;;;5035421;28;20552;-82
2023/12/23 12:55:47;;;;;;;1.37;1.27;;;;;;;;;;5035629;28;20516;-80
2023/12/23 12:58:13;;;;;;;2.07;1.23;;;;;;;;;;5033894;28;20559;-80
2023/12/23 13:00:40;;;;;;;2.50;1.60;;;;;;;;;;5035991;28;20447;-81
2023/12/23 13:03:06;;;;;;;2.57;2.37;;;;;;;;;;5034864;28;21069;-80
2023/12/23 13:05:33;;;;;;;1.70;1.60;;;;;;;;;;5035122;28;20552;-81
2023/12/23 13:08:00;;;;;;;1.90;1.70;;;;;;;;;;5035279;28;20473;-80
2023/12/23 13:10:26;;;;;;;1.73;1.63;;;;;;;;;;5036003;28;20448;-81
2023/12/23 13:12:54;;;;;;;2.23;1.97;;;;;;;;;;5034837;28;21028;-82
2023/12/23 13:15:20;;;;;;;1.90;1.70;;;;;;;;;;5034881;28;21081;-81
2023/12/23 13:17:47;;;;;;;2.17;2.03;;;;;;;;;;5035113;28;20552;-81
2023/12/23 13:20:13;;;;;;;1.60;1.50;;;;;;;;;;5034992;28;20548;-81
2023/12/23 13:22:39;;;;;;;1.43;1.33;;;;;;;;;;5034158;28;20497;-81
2023/12/23 13:25:09;;;;;;;1.53;1.43;;;;;;;;;;5034678;28;20552;-81
2023/12/23 13:27:35;;;;;;;1.60;1.50;;;;;;;;;;5034310;28;20944;-80
2023/12/23 13:30:03;;;;;;;1.70;1.60;;;;;;;;;;5034851;28;20440;-79
2023/12/23 13:32:32;;;;;;;2.23;1.87;;;;;;;;;;5034783;28;20474;-80
2023/12/23 13:35:00;;;;;;;2.27;2.07;;;;;;;;;;5035250;28;20857;-80
2023/12/23 13:37:27;;;;;;;2.93;1.50;;;;;;;;;;5034696;28;20540;-80
2023/12/23 13:39:53;;;;;;;3.60;1.40;;;;;;;;;;5035010;28;21013;-80
2023/12/23 13:42:20;;;;;;;2.07;1.70;;;;;;;;;;5034929;28;20556;-80
2023/12/23 13:44:46;;;;;;;2.27;1.40;;;;;;;;;;5035714;28;20461;-80
2023/12/23 13:47:14;;;;;;;1.50;1.40;;;;;;;;;;5034436;28;20500;-80
2023/12/23 13:49:41;;;;;;;1.67;1.57;;;;;;;;;;5034524;28;20445;-79
2023/12/23 13:52:07;;;;;;;1.23;1.23;;;;;;;;;;5034685;28;20548;-79
2023/12/23 13:54:34;;;;;;;2.90;1.67;;;;;;;;;;5034681;28;20475;-79
2023/12/23 13:57:00;;;;;;;2.10;1.60;;;;;;;;;;5034105;28;20548;-79
2023/12/23 13:59:27;;;;;;;2.30;1.63;;;;;;;;;;5034164;28;20488;-80
2023/12/23 14:01:53;;;;;;;2.10;1.37;;;;;;;;;;5034217;28;20938;-80
2023/12/23 14:04:21;;;;;;;1.63;1.20;;;;;;;;;;5034468;28;20456;-80
2023/12/23 14:06:47;;;;;;;1.27;1.17;;;;;;;;;;5033382;28;20548;-79
2023/12/23 14:09:14;;;;;;;1.13;0.90;;;;;;;;;;5034023;28;20524;-79
2023/12/23 14:11:40;;;;;;;2.83;1.70;;;;;;;;;;5033791;28;20616;-80
2023/12/23 14:14:07;;;;;;;1.57;1.47;;;;;;;;;;5033585;28;21225;-79
2023/12/23 14:16:34;;;;;;;1.30;1.20;;;;;;;;;;5034088;28;20990;-80
2023/12/23 14:19:00;;;;;;;1.60;1.50;;;;;;;;;;5036396;28;20532;-80
2023/12/23 14:21:28;;;;;;;1.77;1.67;;;;;;;;;;5033986;28;20885;-80
2023/12/23 14:23:54;;;;;;;1.80;1.70;;;;;;;;;;5036343;28;20893;-80
2023/12/23 14:26:20;;;;;;;1.67;1.57;;;;;;;;;;5034394;28;20524;-80
2023/12/23 14:28:47;;;;;;;2.47;1.83;;;;;;;;;;5034170;28;20567;-80
2023/12/23 14:31:13;;;;;;;2.60;2.40;;;;;;;;;;5034411;28;20535;-80
2023/12/23 14:33:40;;;;;;;2.40;2.20;;;;;;;;;;5034608;28;20473;-80
2023/12/23 14:36:07;;;;;;;2.87;2.37;;;;;;;;;;5034485;28;20493;-79